createdAt,value
2019-02-17T00:02:01.420Z,27.90
2019-02-17T00:04:30.637Z,25.90
2019-02-17T00:06:59.606Z,25.77
2019-02-17T00:09:28.116Z,23.07
2019-02-17T00:11:57.190Z,26.68
2019-02-17T00:14:26.230Z,25.17
2019-02-17T00:16:57.027Z,22.17
2019-02-17T00:19:25.876Z,22.58
2019-02-17T00:21:54.460Z,24.18
2019-02-17T00:24:23.325Z,25.52
2019-02-17T00:26:52.310Z,21.95
2019-02-17T00:29:21.335Z,22.65
2019-02-17T00:31:50.569Z,24.72
2019-02-17T00:34:19.423Z,22.67
2019-02-17T00:36:47.967Z,23.75
2019-02-17T00:39:16.961Z,21.70
2019-02-17T00:41:45.991Z,24.12
2019-02-17T00:44:15.133Z,23.07
2019-02-17T00:46:43.724Z,22.20
2019-02-17T00:49:12.627Z,22.27
2019-02-17T00:51:43.717Z,22.20
2019-02-17T00:54:12.216Z,22.25
2019-02-17T00:56:41.195Z,20.10
2019-02-17T00:59:10.666Z,20.72
2019-02-17T01:01:39.550Z,21.07
2019-02-17T01:04:08.485Z,21.30
2019-02-17T01:06:37.649Z,21.65
2019-02-17T01:09:06.949Z,19.60
2019-02-17T01:11:35.506Z,19.90
2019-02-17T01:14:04.700Z,21.48
2019-02-17T01:16:33.592Z,19.55
2019-02-17T01:19:02.953Z,20.40
2019-02-17T01:21:32.030Z,20.82
2019-02-17T01:24:00.512Z,20.43
2019-02-17T01:26:29.688Z,22.55
2019-02-17T01:28:58.632Z,19.55
2019-02-17T01:31:27.561Z,20.88
2019-02-17T01:33:56.513Z,21.90
2019-02-17T01:36:25.395Z,19.85
2019-02-17T01:38:54.045Z,21.80
2019-02-17T01:41:23.024Z,20.95
2019-02-17T01:43:51.897Z,20.05
2019-02-17T01:46:21.384Z,22.15
2019-02-17T01:48:50.263Z,19.67
2019-02-17T01:51:19.133Z,22.75
2019-02-17T01:53:48.485Z,22.93
2019-02-17T01:56:17.422Z,21.37
2019-02-17T01:58:46.538Z,20.12
2019-02-17T02:01:17.086Z,20.43
2019-02-17T02:03:45.671Z,21.07
2019-02-17T02:06:14.275Z,22.32
2019-02-17T02:08:42.777Z,22.93
2019-02-17T02:11:11.646Z,21.10
2019-02-17T02:13:40.550Z,20.70
2019-02-17T02:16:09.298Z,21.45
2019-02-17T02:18:38.169Z,20.43
2019-02-17T02:21:07.086Z,18.98
2019-02-17T02:23:36.073Z,19.62
2019-02-17T02:26:04.942Z,21.80
2019-02-17T02:28:33.809Z,20.97
2019-02-17T02:31:02.766Z,19.27
2019-02-17T02:33:31.734Z,21.20
2019-02-17T02:36:00.751Z,22.05
2019-02-17T02:38:29.269Z,20.35
2019-02-17T02:40:58.102Z,21.33
2019-02-17T02:43:26.700Z,23.67
2019-02-17T02:45:55.738Z,22.32
2019-02-17T02:48:24.376Z,22.07
2019-02-17T02:50:53.459Z,22.55
2019-02-17T02:53:22.440Z,21.37
2019-02-17T02:55:51.316Z,20.75
2019-02-17T02:58:19.840Z,20.62
2019-02-17T03:00:49.045Z,20.30
2019-02-17T03:03:18.048Z,20.35
2019-02-17T03:05:48.630Z,20.70
2019-02-17T03:08:17.432Z,20.88
2019-02-17T03:10:45.893Z,22.35
2019-02-17T03:13:14.796Z,21.95
2019-02-17T03:15:43.253Z,20.35
2019-02-17T03:18:31.071Z,20.62
2019-02-17T03:20:59.928Z,21.02
2019-02-17T03:23:28.808Z,20.10
2019-02-17T03:25:57.669Z,22.35
2019-02-17T03:28:26.554Z,21.10
2019-02-17T03:30:55.484Z,23.60
2019-02-17T03:33:24.402Z,20.08
2019-02-17T03:35:52.900Z,20.92
2019-02-17T03:38:21.508Z,20.20
2019-02-17T03:40:50.399Z,19.45
2019-02-17T03:43:19.284Z,20.60
2019-02-17T03:45:48.153Z,20.68
2019-02-17T03:48:18.900Z,20.68
2019-02-17T03:50:47.549Z,18.40
2019-02-17T03:53:16.453Z,20.12
2019-02-17T03:55:44.976Z,21.05
2019-02-17T03:58:13.656Z,20.88
2019-02-17T04:00:42.880Z,18.95
2019-02-17T04:03:12.149Z,19.92
2019-02-17T04:05:41.954Z,19.27
2019-02-17T04:08:11.068Z,20.77
2019-02-17T04:10:39.628Z,20.08
2019-02-17T04:13:08.581Z,19.92
2019-02-17T04:15:37.199Z,21.52
2019-02-17T04:18:06.066Z,20.85
2019-02-17T04:20:34.965Z,21.95
2019-02-17T04:23:03.498Z,21.30
2019-02-17T04:25:32.412Z,19.98
2019-02-17T04:28:01.016Z,19.73
2019-02-17T04:30:30.043Z,20.50
2019-02-17T04:32:58.653Z,19.40
2019-02-17T04:35:27.508Z,20.08
2019-02-17T04:37:56.469Z,19.87
2019-02-17T04:40:25.340Z,21.73
2019-02-17T04:42:54.260Z,20.75
2019-02-17T04:45:23.311Z,20.90
2019-02-17T04:47:52.313Z,19.20
2019-02-17T04:50:20.922Z,20.68
2019-02-17T04:52:49.499Z,20.60
2019-02-17T04:55:18.013Z,20.25
2019-02-17T04:57:46.882Z,21.85
2019-02-17T05:00:19.050Z,19.23
2019-02-17T05:02:48.012Z,19.55
2019-02-17T05:05:16.500Z,23.18
2019-02-17T05:07:45.059Z,22.15
2019-02-17T05:10:13.940Z,19.15
2019-02-17T05:12:42.796Z,19.80
2019-02-17T05:15:11.784Z,19.92
2019-02-17T05:17:40.673Z,20.20
2019-02-17T05:20:09.983Z,18.35
2019-02-17T05:22:39.554Z,19.90
2019-02-17T05:25:08.712Z,18.85
2019-02-17T05:27:37.551Z,19.37
2019-02-17T05:30:07.575Z,19.10
2019-02-17T05:32:36.376Z,19.95
2019-02-17T05:35:06.071Z,18.75
2019-02-17T05:37:34.740Z,19.07
2019-02-17T05:40:03.655Z,20.32
2019-02-17T05:42:32.232Z,19.95
2019-02-17T05:45:01.084Z,19.20
2019-02-17T05:47:29.673Z,19.70
2019-02-17T05:49:58.454Z,19.25
2019-02-17T05:52:27.124Z,19.00
2019-02-17T05:54:56.036Z,18.52
2019-02-17T05:57:25.062Z,18.92
2019-02-17T05:59:53.652Z,18.92
2019-02-17T06:02:22.254Z,19.90
2019-02-17T06:04:51.134Z,19.32
2019-02-17T06:07:20.075Z,18.17
2019-02-17T06:09:48.920Z,19.23
2019-02-17T06:12:18.708Z,18.90
2019-02-17T06:14:47.745Z,18.80
2019-02-17T06:17:16.300Z,19.62
2019-02-17T06:19:44.775Z,18.23
2019-02-17T06:22:13.637Z,18.30
2019-02-17T06:24:42.186Z,18.02
2019-02-17T06:27:11.049Z,18.65
2019-02-17T06:29:39.950Z,19.57
2019-02-17T06:32:08.836Z,20.27
2019-02-17T06:34:37.832Z,18.95
2019-02-17T06:37:06.475Z,18.23
2019-02-17T06:39:35.057Z,17.80
2019-02-17T06:42:03.589Z,19.73
2019-02-17T06:44:32.138Z,20.20
2019-02-17T06:47:01.577Z,17.45
2019-02-17T06:49:30.107Z,19.75
2019-02-17T06:51:59.105Z,19.25
2019-02-17T06:54:28.126Z,17.98
2019-02-17T06:56:59.182Z,17.95
2019-02-17T06:59:27.763Z,18.40
2019-02-17T07:01:56.576Z,20.00
2019-02-17T07:04:27.258Z,19.40
2019-02-17T07:06:57.846Z,19.30
2019-02-17T07:09:26.524Z,18.25
2019-02-17T07:11:56.819Z,17.73
2019-02-17T07:14:26.088Z,18.70
2019-02-17T07:16:55.469Z,19.92
2019-02-17T07:19:24.427Z,18.73
2019-02-17T07:21:52.954Z,19.55
2019-02-17T07:24:21.660Z,18.87
2019-02-17T07:26:50.328Z,19.02
2019-02-17T07:29:18.847Z,17.23
2019-02-17T07:31:47.752Z,19.80
2019-02-17T07:34:16.548Z,19.70
2019-02-17T07:36:45.429Z,19.07
2019-02-17T07:39:14.298Z,18.65
2019-02-17T07:41:43.258Z,17.07
2019-02-17T07:44:19.893Z,17.85
2019-02-17T07:46:48.721Z,18.25
2019-02-17T07:49:17.578Z,19.32
2019-02-17T07:51:46.259Z,18.17
2019-02-17T07:54:14.825Z,18.17
2019-02-17T07:56:43.392Z,18.77
2019-02-17T07:59:12.297Z,19.87
2019-02-17T08:01:45.233Z,17.60
2019-02-17T08:04:11.348Z,17.87
2019-02-17T08:06:39.896Z,19.25
2019-02-17T08:09:08.594Z,17.90
2019-02-17T08:11:37.230Z,19.23
2019-02-17T08:14:05.901Z,19.70
2019-02-17T08:16:34.453Z,20.70
2019-02-17T08:19:03.374Z,19.17
2019-02-17T08:21:32.245Z,18.82
2019-02-17T08:24:01.028Z,18.60
2019-02-17T08:26:29.912Z,20.05
2019-02-17T08:28:58.510Z,18.95
2019-02-17T08:31:27.598Z,18.73
2019-02-17T08:33:56.271Z,20.20
2019-02-17T08:36:24.857Z,20.35
2019-02-17T08:38:53.739Z,19.42
2019-02-17T08:41:22.286Z,18.75
2019-02-17T08:43:52.302Z,20.57
2019-02-17T08:46:21.290Z,20.08
2019-02-17T08:48:50.257Z,19.60
2019-02-17T08:51:19.198Z,19.15
2019-02-17T08:53:48.035Z,20.25
2019-02-17T08:56:18.655Z,21.42
2019-02-17T08:58:47.148Z,19.15
2019-02-17T09:01:16.012Z,20.35
2019-02-17T09:03:44.951Z,18.62
2019-02-17T09:06:13.896Z,20.90
2019-02-17T09:08:42.622Z,20.70
2019-02-17T09:11:11.235Z,21.97
2019-02-17T09:13:59.302Z,20.50
2019-02-17T09:16:27.887Z,20.92
2019-02-17T09:18:56.508Z,20.75
2019-02-17T09:21:30.652Z,19.95
2019-02-17T09:23:59.810Z,19.65
2019-02-17T09:26:29.828Z,19.48
2019-02-17T09:28:58.624Z,19.10
2019-02-17T09:31:27.482Z,19.57
2019-02-17T09:33:56.294Z,20.50
2019-02-17T09:36:25.086Z,20.12
2019-02-17T09:38:54.046Z,18.32
2019-02-17T09:41:23.104Z,18.30
2019-02-17T09:43:52.036Z,19.77
2019-02-17T09:46:20.556Z,19.05
2019-02-17T09:48:49.144Z,18.92
2019-02-17T09:51:18.105Z,19.50
2019-02-17T09:53:46.575Z,17.85
2019-02-17T09:56:15.525Z,19.20
2019-02-17T09:58:44.432Z,18.50
2019-02-17T10:01:13.194Z,18.42
2019-02-17T10:03:42.117Z,18.82
2019-02-17T10:06:10.664Z,17.62
2019-02-17T10:08:39.195Z,19.42
2019-02-17T10:11:08.110Z,17.90
2019-02-17T10:13:36.638Z,17.82
2019-02-17T10:16:05.811Z,18.07
2019-02-17T10:18:34.716Z,16.60
2019-02-17T10:21:04.265Z,19.10
2019-02-17T10:23:33.333Z,19.37
2019-02-17T10:26:01.968Z,17.35
2019-02-17T10:28:30.847Z,17.80
2019-02-17T10:30:59.937Z,18.23
2019-02-17T10:33:28.564Z,20.00
2019-02-17T10:35:57.539Z,19.10
2019-02-17T10:38:25.821Z,17.53
2019-02-17T10:40:54.551Z,17.27
2019-02-17T10:43:23.197Z,18.10
2019-02-17T10:45:57.673Z,19.90
2019-02-17T10:48:26.295Z,18.57
2019-02-17T10:50:54.985Z,19.60
2019-02-17T10:53:23.696Z,19.03
2019-02-17T10:55:52.382Z,18.90
2019-02-17T10:58:20.666Z,18.43
2019-02-17T11:00:48.961Z,18.50
2019-02-17T11:03:17.289Z,16.80
2019-02-17T11:05:45.930Z,19.00
2019-02-17T11:08:14.119Z,16.83
2019-02-17T11:10:42.734Z,17.33
2019-02-17T11:13:11.326Z,16.27
2019-02-17T11:15:40.161Z,16.30
2019-02-17T11:18:08.835Z,16.27
2019-02-17T11:20:37.418Z,17.90
2019-02-17T11:23:06.090Z,18.33
2019-02-17T11:25:34.367Z,17.23
2019-02-17T11:28:03.121Z,16.73
2019-02-17T11:30:31.706Z,17.07
2019-02-17T11:33:00.322Z,16.73
2019-02-17T11:35:29.872Z,17.53
2019-02-17T11:37:58.757Z,18.00
2019-02-17T11:40:27.504Z,17.43
2019-02-17T11:42:55.880Z,14.50
2019-02-17T11:45:24.625Z,16.50
2019-02-17T11:47:52.938Z,14.00
2019-02-17T11:50:21.228Z,14.17
2019-02-17T11:52:49.797Z,13.53
2019-02-17T11:55:18.486Z,12.90
2019-02-17T11:57:47.107Z,13.93
2019-02-17T12:00:19.407Z,14.80
2019-02-17T12:02:48.061Z,13.80
2019-02-17T12:05:16.316Z,13.57
2019-02-17T12:07:44.631Z,14.17
2019-02-17T12:10:13.303Z,14.13
2019-02-17T12:12:41.976Z,13.53
2019-02-17T12:15:12.827Z,14.70
2019-02-17T12:17:41.633Z,13.80
2019-02-17T12:20:36.924Z,13.97
2019-02-17T12:23:32.752Z,14.50
2019-02-17T12:26:08.946Z,13.87
2019-02-17T12:28:39.233Z,14.43
2019-02-17T12:31:08.304Z,13.67
2019-02-17T12:33:37.933Z,14.10
2019-02-17T12:36:06.521Z,13.00
2019-02-17T12:38:35.211Z,14.10
2019-02-17T12:41:03.933Z,13.10
2019-02-17T12:43:32.519Z,15.13
2019-02-17T12:46:01.161Z,13.60
2019-02-17T12:48:30.047Z,12.90
2019-02-17T12:51:00.234Z,13.93
2019-02-17T12:53:29.216Z,12.87
2019-02-17T12:55:57.895Z,47.70
2019-02-17T12:58:29.883Z,13.43
2019-02-17T13:00:56.773Z,13.43
2019-02-17T13:03:28.576Z,12.90
2019-02-17T13:05:55.755Z,13.27
2019-02-17T13:08:24.667Z,12.73
2019-02-17T13:10:53.355Z,14.40
2019-02-17T13:13:21.978Z,12.60
2019-02-17T13:15:50.941Z,13.20
2019-02-17T13:18:19.461Z,13.93
2019-02-17T13:20:48.045Z,12.83
2019-02-17T13:23:16.706Z,13.07
2019-02-17T13:25:45.290Z,12.63
2019-02-17T13:28:13.892Z,12.97
2019-02-17T13:30:42.577Z,12.10
2019-02-17T13:33:11.294Z,13.30
2019-02-17T13:35:39.893Z,12.80
2019-02-17T13:38:09.223Z,11.50
2019-02-17T13:40:37.986Z,12.47
2019-02-17T13:43:06.323Z,10.80
2019-02-17T13:45:35.008Z,11.80
2019-02-17T13:48:03.766Z,12.27
2019-02-17T13:50:32.364Z,12.57
2019-02-17T13:53:11.089Z,13.17
2019-02-17T13:55:31.528Z,11.40
2019-02-17T13:58:00.322Z,12.47
2019-02-17T14:00:29.030Z,14.03
2019-02-17T14:02:58.558Z,12.40
2019-02-17T14:05:28.827Z,12.40
2019-02-17T14:07:57.434Z,13.27
2019-02-17T14:10:26.022Z,11.90
2019-02-17T14:12:54.640Z,12.50
2019-02-17T14:15:23.460Z,13.10
2019-02-17T14:17:52.193Z,13.90
2019-02-17T14:20:20.823Z,12.50
2019-02-17T14:22:49.778Z,12.63
2019-02-17T14:25:18.444Z,13.63
2019-02-17T14:27:46.682Z,13.83
2019-02-17T14:30:15.620Z,12.77
2019-02-17T14:32:43.871Z,14.20
2019-02-17T14:35:12.165Z,12.80
2019-02-17T14:37:40.398Z,13.30
2019-02-17T14:40:17.083Z,13.97
2019-02-17T14:42:46.134Z,12.90
2019-02-17T14:45:14.721Z,13.50
2019-02-17T14:47:43.015Z,12.93
2019-02-17T14:50:11.595Z,13.70
2019-02-17T14:52:40.247Z,12.73
2019-02-17T14:55:10.400Z,12.07
2019-02-17T14:57:38.933Z,13.67
2019-02-17T15:00:17.326Z,12.97
2019-02-17T15:02:46.015Z,11.90
2019-02-17T15:05:14.686Z,13.63
2019-02-17T15:07:43.278Z,12.57
2019-02-17T15:10:13.314Z,14.17
2019-02-17T15:12:41.533Z,12.73
2019-02-17T15:15:14.700Z,13.83
2019-02-17T15:17:43.416Z,13.80
2019-02-17T15:20:17.606Z,13.33
2019-02-17T15:22:45.937Z,12.70
2019-02-17T15:25:14.544Z,12.90
2019-02-17T15:27:43.141Z,13.20
2019-02-17T15:30:17.807Z,14.37
2019-02-17T15:32:45.775Z,13.00
2019-02-17T15:35:14.137Z,13.23
2019-02-17T15:37:42.422Z,12.27
2019-02-17T15:40:12.287Z,12.97
2019-02-17T15:42:42.917Z,12.63
2019-02-17T15:45:11.153Z,12.87
2019-02-17T15:47:39.491Z,13.30
2019-02-17T15:50:10.183Z,12.57
2019-02-17T15:52:38.539Z,13.20
2019-02-17T15:55:07.985Z,13.20
2019-02-17T15:57:36.262Z,13.90
2019-02-17T16:00:06.917Z,12.63
2019-02-17T16:02:35.290Z,12.10
2019-02-17T16:05:04.998Z,13.00
2019-02-17T16:07:33.361Z,13.70
2019-02-17T16:10:03.771Z,14.83
2019-02-17T16:12:31.670Z,13.37
2019-02-17T16:15:00.237Z,12.83
2019-02-17T16:17:28.538Z,13.90
2019-02-17T16:19:56.820Z,14.23
2019-02-17T16:22:24.994Z,14.10
2019-02-17T16:24:53.264Z,14.17
2019-02-17T16:27:21.439Z,13.17
2019-02-17T16:29:50.959Z,14.13
2019-02-17T16:32:19.290Z,13.80
2019-02-17T16:34:47.714Z,15.67
2019-02-17T16:37:16.242Z,13.50
2019-02-17T16:39:44.868Z,12.83
2019-02-17T16:42:13.128Z,13.80
2019-02-17T16:44:41.475Z,13.60
2019-02-17T16:47:09.716Z,13.50
2019-02-17T16:49:37.987Z,12.83
2019-02-17T16:52:06.245Z,13.87
2019-02-17T16:54:34.788Z,13.57
2019-02-17T16:57:03.120Z,11.73
2019-02-17T16:59:31.798Z,13.90
2019-02-17T17:02:00.181Z,14.67
2019-02-17T17:04:29.118Z,12.93
2019-02-17T17:06:58.244Z,12.90
2019-02-17T17:09:26.631Z,13.37
2019-02-17T17:11:54.981Z,15.13
2019-02-17T17:14:23.537Z,14.65
2019-02-17T17:16:52.071Z,6.40
2019-02-17T17:19:20.317Z,6.93
2019-02-17T17:21:48.680Z,9.70
2019-02-17T17:24:16.923Z,13.20
2019-02-17T17:26:45.282Z,11.23
2019-02-17T17:29:14.055Z,12.27
2019-02-17T17:31:42.675Z,11.23
2019-02-17T17:34:11.234Z,12.60
2019-02-17T17:36:39.612Z,16.20
2019-02-17T17:39:07.895Z,14.97
2019-02-17T17:41:36.491Z,16.33
2019-02-17T17:44:06.529Z,16.07
2019-02-17T17:46:35.070Z,15.30
2019-02-17T17:49:03.339Z,14.60
2019-02-17T17:51:35.626Z,15.90
2019-02-17T17:54:04.866Z,15.80
2019-02-17T17:56:34.085Z,16.77
2019-02-17T17:59:02.987Z,16.40
2019-02-17T18:01:31.518Z,16.57
2019-02-17T18:04:00.074Z,17.95
2019-02-17T18:06:28.948Z,18.12
2019-02-17T18:08:57.543Z,17.90
2019-02-17T18:11:26.311Z,17.17
2019-02-17T18:13:54.881Z,17.42
2019-02-17T18:16:23.460Z,17.12
2019-02-17T18:18:51.961Z,17.60
2019-02-17T18:21:20.833Z,13.72
2019-02-17T18:23:49.801Z,20.27
2019-02-17T18:26:18.683Z,18.45
2019-02-17T18:28:47.701Z,19.55
2019-02-17T18:31:16.704Z,19.62
2019-02-17T18:33:49.620Z,18.42
2019-02-17T18:36:18.476Z,21.02
2019-02-17T18:38:47.387Z,22.00
2019-02-17T18:41:16.317Z,22.32
2019-02-17T18:43:45.822Z,22.27
2019-02-17T18:46:14.366Z,20.37
2019-02-17T18:48:42.966Z,22.27
2019-02-17T18:51:11.919Z,21.85
2019-02-17T18:53:40.902Z,20.92
2019-02-17T18:56:09.782Z,21.68
2019-02-17T18:58:38.707Z,21.33
2019-02-17T19:01:07.625Z,20.85
2019-02-17T19:03:36.518Z,22.25
2019-02-17T19:06:05.598Z,23.98
2019-02-17T19:08:34.128Z,23.00
2019-02-17T19:11:03.084Z,24.67
2019-02-17T19:13:31.902Z,24.00
2019-02-17T19:16:00.799Z,23.62
2019-02-17T19:18:29.684Z,22.85
2019-02-17T19:20:58.613Z,22.52
2019-02-17T19:23:27.644Z,12.10
2019-02-17T19:25:56.339Z,17.65
2019-02-17T19:28:24.842Z,18.35
2019-02-17T19:30:53.488Z,18.65
2019-02-17T19:33:22.067Z,17.37
2019-02-17T19:35:50.957Z,19.98
2019-02-17T19:38:19.542Z,20.90
2019-02-17T19:40:47.782Z,21.10
2019-02-17T19:43:16.109Z,22.37
2019-02-17T19:45:44.813Z,21.97
2019-02-17T19:48:13.191Z,22.10
2019-02-17T19:50:41.816Z,22.65
2019-02-17T19:53:10.358Z,24.95
2019-02-17T19:55:39.267Z,22.30
2019-02-17T19:58:07.900Z,21.70
2019-02-17T20:00:36.560Z,24.20
2019-02-17T20:03:09.723Z,24.80
2019-02-17T20:05:58.028Z,23.85
2019-02-17T20:08:27.089Z,22.85
2019-02-17T20:10:56.254Z,23.12
2019-02-17T20:13:25.226Z,22.60
2019-02-17T20:15:54.236Z,22.85
2019-02-17T20:18:22.888Z,22.37
2019-02-17T20:20:52.039Z,24.07
2019-02-17T20:23:21.226Z,22.93
2019-02-17T20:25:50.644Z,21.42
2019-02-17T20:28:19.678Z,23.95
2019-02-17T20:30:48.712Z,24.07
2019-02-17T20:33:18.194Z,22.13
2019-02-17T20:35:47.193Z,23.65
2019-02-17T20:38:15.719Z,22.40
2019-02-17T20:40:44.531Z,23.18
2019-02-17T20:43:13.070Z,23.18
2019-02-17T20:45:42.036Z,24.85
2019-02-17T20:48:11.217Z,23.98
2019-02-17T20:50:41.903Z,26.00
2019-02-17T20:53:11.426Z,23.15
2019-02-17T20:55:40.172Z,25.08
2019-02-17T20:58:09.652Z,24.75
2019-02-17T21:00:38.560Z,25.35
2019-02-17T21:03:07.569Z,22.85
2019-02-17T21:05:37.003Z,22.73
2019-02-17T21:08:06.438Z,22.32
2019-02-17T21:10:35.242Z,22.45
2019-02-17T21:13:04.403Z,23.02
2019-02-17T21:15:33.454Z,21.77
2019-02-17T21:18:01.991Z,23.05
2019-02-17T21:20:30.834Z,23.30
2019-02-17T21:22:59.830Z,22.60
2019-02-17T21:25:28.722Z,24.05
2019-02-17T21:27:57.248Z,23.52
2019-02-17T21:30:26.143Z,22.95
2019-02-17T21:32:54.727Z,21.73
2019-02-17T21:35:23.734Z,23.45
2019-02-17T21:37:53.282Z,22.15
2019-02-17T21:40:21.764Z,22.05
2019-02-17T21:42:50.316Z,22.37
2019-02-17T21:45:18.799Z,19.17
2019-02-17T21:47:47.595Z,19.95
2019-02-17T21:50:16.495Z,20.30
2019-02-17T21:52:45.034Z,20.23
2019-02-17T21:55:14.375Z,17.35
2019-02-17T21:57:42.974Z,14.70
2019-02-17T22:00:14.425Z,16.48
2019-02-17T22:02:42.971Z,16.55
2019-02-17T22:05:11.606Z,14.58
2019-02-17T22:07:40.485Z,15.78
2019-02-17T22:10:16.039Z,15.60
2019-02-17T22:12:44.662Z,14.55
2019-02-17T22:15:17.239Z,14.13
2019-02-17T22:17:45.813Z,14.00
2019-02-17T22:20:14.349Z,13.72
2019-02-17T22:22:42.860Z,12.53
2019-02-17T22:25:11.447Z,12.33
2019-02-17T22:27:39.923Z,12.07
2019-02-17T22:30:12.047Z,12.10
2019-02-17T22:32:40.552Z,12.40
2019-02-17T22:35:09.110Z,11.80
2019-02-17T22:37:37.909Z,12.45
2019-02-17T22:40:13.130Z,13.70
2019-02-17T22:42:41.950Z,14.43
2019-02-17T22:45:11.840Z,12.40
2019-02-17T22:47:40.879Z,15.15
2019-02-17T22:50:10.381Z,14.00
2019-02-17T22:52:38.955Z,15.55
2019-02-17T22:55:09.980Z,15.23
2019-02-17T22:57:38.878Z,16.62
2019-02-17T23:00:33.205Z,15.83
2019-02-17T23:03:01.845Z,16.15
2019-02-17T23:05:30.381Z,15.98
2019-02-17T23:07:59.261Z,16.25
2019-02-17T23:10:27.905Z,15.30
2019-02-17T23:12:56.431Z,15.70
2019-02-17T23:15:25.081Z,16.02
2019-02-17T23:17:54.075Z,16.17
2019-02-17T23:20:22.624Z,14.38
2019-02-17T23:22:51.249Z,9.65
2019-02-17T23:25:20.142Z,10.70
2019-02-17T23:27:48.957Z,19.77
2019-02-17T23:30:17.711Z,13.30
2019-02-17T23:32:46.746Z,13.90
2019-02-17T23:35:15.374Z,14.00
2019-02-17T23:37:44.581Z,13.13
2019-02-17T23:40:16.202Z,15.30
2019-02-17T23:42:45.072Z,16.73
2019-02-17T23:45:14.675Z,14.65
2019-02-17T23:47:43.335Z,12.70
2019-02-17T23:50:13.417Z,13.88
2019-02-17T23:52:42.015Z,12.60
2019-02-17T23:55:11.921Z,12.33
2019-02-17T23:57:40.940Z,12.63
